Time;durP1;ratioP1;P1;durP2;ratioP2;P2;SDS_P1;SDS_P2;PMS_P1;PMS_P2;Temp;Humidity;BMP_temperature;BMP_pressure;BME280_temperature;BME280_humidity;BME280_pressure;Samples;Min_cycle;Max_cycle;Signal;HPM_P1;HPM_P2
2024/01/24 00:03:04;;;;;;;18.10;7.90;;;;;;;3.91;100.00;101149.61;52259;1257;1076306;-80
2024/01/24 00:05:50;;;;;;;21.00;7.60;;;;;;;3.92;100.00;101139.64;52050;1271;1077311;-79
2024/01/24 00:08:36;;;;;;;22.70;7.60;;;;;;;3.95;100.00;101145.04;52142;1272;1076560;-80
2024/01/24 00:11:22;;;;;;;26.90;7.40;;;;;;;3.96;100.00;101144.29;52275;1257;1076994;-80
2024/01/24 00:14:07;;;;;;;24.50;7.10;;;;;;;3.96;100.00;101143.39;52247;1257;1076783;-80
2024/01/24 00:16:53;;;;;;;19.40;7.80;;;;;;;3.96;100.00;101139.27;52178;1260;1076714;-81
2024/01/24 00:19:39;;;;;;;23.20;7.60;;;;;;;3.96;100.00;101129.91;52130;1276;1076934;-80
2024/01/24 00:22:25;;;;;;;19.10;7.00;;;;;;;3.97;100.00;101135.17;52239;1257;1077271;-80
2024/01/24 00:25:11;;;;;;;25.00;7.90;;;;;;;3.96;100.00;101134.89;52144;1257;1076139;-80
2024/01/24 00:27:57;;;;;;;20.00;7.50;;;;;;;3.96;100.00;101136.60;52208;1264;1076050;-80
2024/01/24 00:30:43;;;;;;;17.00;7.20;;;;;;;3.96;100.00;101137.02;52269;1260;1077157;-79
2024/01/24 00:33:29;;;;;;;22.60;7.90;;;;;;;3.96;100.00;101124.96;52244;1260;1078091;-79
2024/01/24 00:36:16;;;;;;;20.70;7.20;;;;;;;3.97;100.00;101116.93;52310;1258;1076794;-79
2024/01/24 00:39:01;;;;;;;19.70;6.40;;;;;;;3.97;100.00;101110.23;52279;1258;1076700;-80
2024/01/24 00:41:47;;;;;;;25.20;8.40;;;;;;;3.96;100.00;101112.28;52165;1257;1076177;-79
2024/01/24 00:44:33;;;;;;;25.20;7.50;;;;;;;3.94;100.00;101116.52;52186;1260;1076387;-80
2024/01/24 00:47:19;;;;;;;21.10;7.20;;;;;;;3.91;100.00;101112.67;52186;1269;1076012;-80
2024/01/24 00:50:06;;;;;;;18.70;7.50;;;;;;;3.86;100.00;101122.65;52223;1260;1077400;-79
2024/01/24 00:52:55;;;;;;;21.30;6.60;;;;;;;3.82;100.00;101121.74;52164;1260;1077329;-81
2024/01/24 00:55:40;;;;;;;21.70;7.00;;;;;;;3.80;100.00;101105.67;52169;1269;1079385;-80
2024/01/24 00:58:26;;;;;;;20.80;6.40;;;;;;;3.77;100.00;101096.73;52277;1260;1076948;-80
2024/01/24 01:01:12;;;;;;;22.80;6.30;;;;;;;3.76;100.00;101083.23;52351;1256;1076073;-80
2024/01/24 01:03:58;;;;;;;24.80;8.00;;;;;;;3.74;100.00;101079.73;52317;1257;1077282;-80
2024/01/24 01:06:44;;;;;;;22.20;7.30;;;;;;;3.73;100.00;101076.83;52578;1257;1076899;-81
2024/01/24 01:09:30;;;;;;;16.70;6.70;;;;;;;3.71;100.00;101076.42;52301;1258;1076007;-79
2024/01/24 01:12:16;;;;;;;20.60;6.70;;;;;;;3.70;100.00;101063.85;52140;1257;1076520;-80
2024/01/24 01:15:02;;;;;;;21.10;6.10;;;;;;;3.66;100.00;101050.36;52489;1258;1077017;-81
2024/01/24 01:17:48;;;;;;;11.80;6.30;;;;;;;3.65;100.00;101042.14;52584;1257;1076746;-80
2024/01/24 01:20:34;;;;;;;18.10;6.40;;;;;;;3.64;100.00;101023.59;52569;1260;1076785;-81
2024/01/24 01:23:20;;;;;;;15.10;7.80;;;;;;;3.61;100.00;101008.08;52562;1256;1076395;-81
2024/01/24 01:26:05;;;;;;;16.40;6.60;;;;;;;3.58;100.00;101001.11;52295;1257;1077363;-80
2024/01/24 01:28:51;;;;;;;25.40;7.70;;;;;;;3.56;100.00;100994.61;52241;1256;1077253;-80
2024/01/24 01:31:37;;;;;;;22.30;6.50;;;;;;;3.55;100.00;100980.02;52383;1257;1077271;-80
2024/01/24 01:34:23;;;;;;;19.00;7.60;;;;;;;3.52;100.00;100978.33;52482;1257;1077318;-80
2024/01/24 01:37:08;;;;;;;22.60;7.70;;;;;;;3.50;100.00;100966.27;52613;1261;1076973;-81
2024/01/24 01:39:54;;;;;;;22.50;7.20;;;;;;;3.49;100.00;100961.79;52544;1258;1076424;-79
2024/01/24 01:42:44;;;;;;;18.60;7.70;;;;;;;3.47;100.00;100964.65;52125;1258;1076833;-79
2024/01/24 01:45:29;;;;;;;19.40;7.90;;;;;;;3.45;100.00;100965.71;52212;1260;1076404;-79
2024/01/24 01:48:15;;;;;;;20.60;7.70;;;;;;;3.44;100.00;100964.42;52296;1261;1076870;-80
2024/01/24 01:51:02;;;;;;;29.70;9.00;;;;;;;3.44;100.00;100955.75;52312;1257;1076683;-81
2024/01/24 01:53:48;;;;;;;17.90;7.00;;;;;;;3.43;100.00;100943.13;52588;1257;1076848;-80
2024/01/24 01:56:34;;;;;;;26.20;8.00;;;;;;;3.41;100.00;100932.48;52507;1260;1076810;-80
2024/01/24 01:59:20;;;;;;;24.60;9.90;;;;;;;3.38;100.00;100928.33;52238;1255;1076979;-80
2024/01/24 02:02:06;;;;;;;26.80;7.80;;;;;;;3.38;100.00;100932.29;52279;1258;1076771;-81
2024/01/24 02:04:52;;;;;;;21.90;7.60;;;;;;;3.36;100.00;100933.60;52354;1257;1076609;-81
2024/01/24 02:07:38;;;;;;;26.20;9.00;;;;;;;3.33;100.00;100929.88;52308;1261;1076797;-81
2024/01/24 02:10:24;;;;;;;23.40;8.50;;;;;;;3.30;100.00;100922.86;52301;1260;1076484;-79
2024/01/24 02:13:11;;;;;;;24.00;7.70;;;;;;;3.27;100.00;100898.09;52282;1263;1076760;-80
2024/01/24 02:15:58;;;;;;;18.80;7.60;;;;;;;3.25;100.00;100896.99;52078;1272;1078848;-79
2024/01/24 02:18:44;;;;;;;22.50;9.20;;;;;;;3.23;100.00;100895.13;52104;1257;1076452;-80
2024/01/24 02:21:30;;;;;;;24.20;9.50;;;;;;;3.21;100.00;100889.59;52326;1260;1076234;-80
2024/01/24 02:24:16;;;;;;;26.40;8.40;;;;;;;3.20;100.00;100871.55;52255;1258;1076558;-79
2024/01/24 02:27:02;;;;;;;22.80;7.90;;;;;;;3.17;100.00;100855.20;52216;1258;1076864;-79
2024/01/24 02:29:48;;;;;;;18.70;7.60;;;;;;;3.15;100.00;100849.54;52265;1264;1076919;-81
2024/01/24 02:32:34;;;;;;;19.40;7.90;;;;;;;3.12;100.00;100849.27;52214;1257;1076795;-80
2024/01/24 02:35:24;;;;;;;17.50;6.80;;;;;;;3.11;100.00;100841.20;52393;1258;1078748;-80
2024/01/24 02:38:10;;;;;;;22.90;7.20;;;;;;;3.10;100.00;100838.11;52317;1260;1076629;-80
2024/01/24 02:40:56;;;;;;;22.00;7.60;;;;;;;3.11;100.00;100827.98;52248;1261;1076404;-79
2024/01/24 02:43:41;;;;;;;19.20;7.20;;;;;;;3.12;100.00;100821.61;52367;1257;1077615;-80
2024/01/24 02:46:27;;;;;;;21.30;8.10;;;;;;;3.13;100.00;100806.64;52472;1261;1076606;-81
2024/01/24 02:49:13;;;;;;;17.00;7.40;;;;;;;3.16;100.00;100791.80;52336;1257;1077252;-80
2024/01/24 02:52:02;;;;;;;17.40;7.20;;;;;;;3.17;100.00;100791.54;52397;1257;1077851;-80
2024/01/24 02:54:48;;;;;;;15.30;6.90;;;;;;;3.18;100.00;100794.80;52393;1258;1076580;-80
2024/01/24 02:57:33;;;;;;;20.60;6.40;;;;;;;3.19;100.00;100787.28;52451;1255;1077147;-81
2024/01/24 03:00:19;;;;;;;17.20;6.50;;;;;;;3.20;100.00;100774.89;52447;1256;1079356;-81
2024/01/24 03:03:05;;;;;;;20.30;6.10;;;;;;;3.20;100.00;100773.13;52572;1264;1076155;-81
2024/01/24 03:05:51;;;;;;;17.30;5.90;;;;;;;3.20;100.00;100762.12;52323;1260;1076021;-80
2024/01/24 03:08:51;;;;;;;12.80;5.50;;;;;;;3.21;100.00;100748.11;52050;1261;1077626;-79
2024/01/24 03:11:37;;;;;;;16.50;5.60;;;;;;;3.21;100.00;100735.08;52054;1264;1079029;-80
2024/01/24 03:14:24;;;;;;;22.00;6.30;;;;;;;3.21;100.00;100719.39;52058;1260;1076467;-78
2024/01/24 03:17:11;;;;;;;15.90;5.90;;;;;;;3.20;100.00;100711.64;52396;1260;1076318;-80
2024/01/24 03:19:56;;;;;;;20.10;6.60;;;;;;;3.18;100.00;100703.04;52537;1257;1077171;-80
2024/01/24 03:22:42;;;;;;;17.00;6.00;;;;;;;3.18;100.00;100697.06;52504;1256;1076515;-80
2024/01/24 03:25:28;;;;;;;21.90;6.50;;;;;;;3.17;100.00;100681.23;52574;1255;1076395;-81
2024/01/24 03:28:14;;;;;;;16.40;5.70;;;;;;;3.17;100.00;100690.58;52601;1255;1076095;-80
2024/01/24 03:31:01;;;;;;;20.30;5.50;;;;;;;3.18;100.00;100679.38;52392;1260;1077345;-81
2024/01/24 03:33:46;;;;;;;12.80;5.20;;;;;;;3.19;100.00;100676.80;52233;1261;1078301;-80
2024/01/24 03:36:32;;;;;;;14.40;6.10;;;;;;;3.20;99.93;100668.48;52622;1257;1076823;-82
2024/01/24 03:39:18;;;;;;;24.40;6.50;;;;;;;3.21;99.98;100671.66;52638;1255;1078776;-81
2024/01/24 03:42:04;;;;;;;13.90;5.90;;;;;;;3.22;100.00;100666.31;52493;1260;1077361;-81
2024/01/24 03:44:50;;;;;;;17.10;5.10;;;;;;;3.24;99.92;100661.77;52475;1256;1078831;-81
2024/01/24 03:47:35;;;;;;;17.50;5.80;;;;;;;3.25;99.94;100651.25;52613;1255;1078277;-82
2024/01/24 03:50:21;;;;;;;19.20;5.80;;;;;;;3.25;99.94;100638.88;52614;1257;1076964;-81
2024/01/24 03:53:07;;;;;;;17.90;5.60;;;;;;;3.25;99.92;100648.75;52598;1264;1076850;-82
2024/01/24 03:55:52;;;;;;;13.90;6.20;;;;;;;3.25;99.80;100643.23;52564;1260;1076979;-82
2024/01/24 03:58:38;;;;;;;16.50;6.60;;;;;;;3.25;99.66;100627.70;52514;1259;1076218;-81
2024/01/24 04:01:24;;;;;;;22.30;6.80;;;;;;;3.26;99.58;100625.91;52613;1256;1076349;-81
2024/01/24 04:04:10;;;;;;;14.70;5.80;;;;;;;3.25;99.76;100618.05;52495;1257;1076073;-81
2024/01/24 04:06:56;;;;;;;17.90;6.80;;;;;;;3.24;99.48;100606.45;52597;1261;1077086;-81
2024/01/24 04:09:42;;;;;;;15.70;6.00;;;;;;;3.24;99.71;100597.16;52551;1259;1079359;-82
2024/01/24 04:12:28;;;;;;;17.70;6.00;;;;;;;3.23;99.38;100590.33;52506;1257;1076359;-81
2024/01/24 04:15:14;;;;;;;19.00;6.30;;;;;;;3.23;99.59;100577.08;52493;1255;1076658;-81
2024/01/24 04:18:00;;;;;;;20.10;6.40;;;;;;;3.25;99.51;100568.66;52580;1260;1077015;-81
2024/01/24 04:20:45;;;;;;;15.90;6.50;;;;;;;3.25;99.44;100549.70;52503;1257;1077127;-81
2024/01/24 04:23:31;;;;;;;19.30;6.90;;;;;;;3.26;99.29;100543.85;52682;1256;1077304;-81
2024/01/24 04:26:21;;;;;;;16.40;6.40;;;;;;;3.26;99.40;100532.21;52623;1257;1076852;-81
2024/01/24 04:29:07;;;;;;;17.80;6.90;;;;;;;3.26;99.16;100529.39;52547;1257;1077749;-81
2024/01/24 04:31:53;;;;;;;17.20;6.10;;;;;;;3.25;99.23;100518.52;52601;1261;1076274;-81
2024/01/24 04:34:38;;;;;;;12.50;5.80;;;;;;;3.25;99.25;100508.27;52534;1257;1076648;-81
2024/01/24 04:37:24;;;;;;;18.10;7.20;;;;;;;3.26;99.07;100501.17;52231;1260;1076461;-79
2024/01/24 04:40:12;;;;;;;17.90;6.90;;;;;;;3.25;98.99;100496.98;52627;1261;1076707;-81
2024/01/24 04:42:57;;;;;;;18.50;7.50;;;;;;;3.24;98.97;100487.73;52514;1257;1076558;-81
2024/01/24 04:45:43;;;;;;;15.70;6.20;;;;;;;3.24;98.65;100478.90;52540;1258;1077506;-81
2024/01/24 04:48:29;;;;;;;17.20;6.40;;;;;;;3.24;98.78;100466.50;52441;1257;1076889;-82
2024/01/24 04:51:15;;;;;;;22.80;6.30;;;;;;;3.25;98.57;100457.48;52556;1260;1076188;-81
2024/01/24 04:54:01;;;;;;;13.60;5.80;;;;;;;3.25;98.57;100442.81;52656;1256;1076204;-81
2024/01/24 04:56:47;;;;;;;14.10;5.90;;;;;;;3.25;98.42;100443.15;52607;1257;1077773;-81
2024/01/24 04:59:33;;;;;;;15.40;5.60;;;;;;;3.25;98.34;100448.42;52611;1255;1077557;-81
2024/01/24 05:02:19;;;;;;;20.40;7.40;;;;;;;3.26;98.37;100442.21;52575;1263;1076850;-81
2024/01/24 05:05:06;;;;;;;14.10;5.70;;;;;;;3.26;98.38;100444.64;52529;1258;1077444;-81
2024/01/24 05:07:52;;;;;;;18.30;7.30;;;;;;;3.26;98.24;100442.70;52546;1257;1077162;-82
2024/01/24 05:10:39;;;;;;;15.20;6.10;;;;;;;3.26;98.02;100437.41;52559;1256;1076035;-81
2024/01/24 05:13:24;;;;;;;20.50;6.50;;;;;;;3.26;98.13;100418.20;52511;1257;1076686;-81
2024/01/24 05:16:10;;;;;;;14.60;6.00;;;;;;;3.26;98.26;100418.00;52409;1260;1077883;-81
2024/01/24 05:18:56;;;;;;;16.50;6.60;;;;;;;3.27;98.04;100410.00;52448;1258;1076823;-81
2024/01/24 05:21:42;;;;;;;14.10;6.10;;;;;;;3.27;98.07;100399.75;52617;1260;1077879;-82
2024/01/24 05:24:28;;;;;;;17.10;6.20;;;;;;;3.29;98.14;100391.30;52539;1258;1077372;-81
2024/01/24 05:27:15;;;;;;;19.80;6.30;;;;;;;3.29;97.95;100382.64;52326;1257;1077597;-82
2024/01/24 05:30:01;;;;;;;14.20;6.70;;;;;;;3.31;98.01;100364.79;52575;1258;1077693;-81
2024/01/24 05:32:46;;;;;;;15.20;6.20;;;;;;;3.32;97.77;100356.05;52544;1257;1076838;-80
2024/01/24 05:35:32;;;;;;;15.30;6.00;;;;;;;3.31;97.78;100357.88;52590;1258;1076277;-80
2024/01/24 05:38:18;;;;;;;19.80;6.90;;;;;;;3.31;97.77;100358.11;52570;1255;1077183;-80
2024/01/24 05:41:04;;;;;;;19.40;7.60;;;;;;;3.31;97.71;100355.96;52380;1257;1076865;-81
2024/01/24 05:43:50;;;;;;;18.50;6.10;;;;;;;3.32;97.93;100357.92;52455;1258;1076963;-81
2024/01/24 05:46:35;;;;;;;19.60;6.00;;;;;;;3.33;98.53;100353.64;52341;1260;1076594;-80
2024/01/24 05:49:21;;;;;;;14.90;6.00;;;;;;;3.32;98.91;100347.77;52213;1255;1076835;-80
2024/01/24 05:52:07;;;;;;;14.00;5.40;;;;;;;3.27;99.06;100337.98;52517;1257;1076978;-80
2024/01/24 05:54:53;;;;;;;19.30;6.30;;;;;;;3.24;99.75;100325.36;52475;1256;1076940;-80
2024/01/24 05:57:42;;;;;;;18.30;6.30;;;;;;;3.21;100.00;100311.17;52378;1260;1077388;-80
2024/01/24 06:00:28;;;;;;;12.10;5.80;;;;;;;3.18;100.00;100306.20;52241;1258;1076860;-80
2024/01/24 06:03:14;;;;;;;13.20;5.50;;;;;;;3.15;100.00;100291.48;52278;1260;1076692;-81
2024/01/24 06:06:01;;;;;;;16.60;6.00;;;;;;;3.14;100.00;100277.34;52475;1257;1077875;-81
2024/01/24 06:08:46;;;;;;;20.30;7.00;;;;;;;3.11;100.00;100258.46;52213;1260;1076304;-81
2024/01/24 06:11:33;;;;;;;14.80;5.40;;;;;;;3.09;100.00;100243.01;52287;1258;1077045;-79
2024/01/24 06:14:19;;;;;;;20.80;6.50;;;;;;;3.08;100.00;100237.29;52255;1258;1076071;-81
2024/01/24 06:17:05;;;;;;;17.60;6.20;;;;;;;3.06;100.00;100228.98;52435;1256;1076873;-80
2024/01/24 06:19:51;;;;;;;16.60;6.30;;;;;;;3.05;100.00;100229.11;52352;1260;1076463;-81
2024/01/24 06:22:37;;;;;;;14.90;5.80;;;;;;;3.03;100.00;100229.15;52667;1259;1076377;-82
2024/01/24 06:25:23;;;;;;;17.50;6.40;;;;;;;3.02;100.00;100222.03;52555;1258;1077498;-80
2024/01/24 06:28:08;;;;;;;19.60;6.80;;;;;;;3.00;100.00;100210.70;52521;1256;1077355;-81
2024/01/24 06:30:54;;;;;;;19.50;7.30;;;;;;;3.00;100.00;100208.67;52507;1257;1076425;-81
2024/01/24 06:33:40;;;;;;;78.80;39.90;;;;;;;2.98;100.00;100197.72;52400;1260;1076713;-81
2024/01/24 06:36:28;;;;;;;34.60;19.40;;;;;;;2.95;100.00;100185.48;52316;1256;1076712;-81
2024/01/24 06:39:14;;;;;;;28.70;12.60;;;;;;;2.92;100.00;100177.80;52372;1260;1076574;-82
2024/01/24 06:42:00;;;;;;;49.60;34.30;;;;;;;2.90;100.00;100169.38;52548;1257;1076584;-81
2024/01/24 06:44:46;;;;;;;28.80;14.50;;;;;;;2.89;100.00;100152.34;52511;1257;1077136;-81
2024/01/24 06:47:31;;;;;;;32.00;21.40;;;;;;;2.88;100.00;100137.30;52359;1261;1076626;-82
2024/01/24 06:50:18;;;;;;;19.20;9.10;;;;;;;2.88;100.00;100102.09;52289;1257;1076805;-80
2024/01/24 06:53:05;;;;;;;27.50;14.40;;;;;;;2.86;100.00;100085.20;52631;1257;1076362;-81
2024/01/24 06:55:52;;;;;;;31.90;17.30;;;;;;;2.84;100.00;100066.62;52313;1257;1077846;-80
2024/01/24 06:58:38;;;;;;;25.50;10.80;;;;;;;2.84;100.00;100041.16;52521;1258;1076677;-81
2024/01/24 07:01:23;;;;;;;19.30;9.50;;;;;;;2.83;100.00;100021.42;52621;1257;1076490;-80
2024/01/24 07:04:09;;;;;;;20.50;9.10;;;;;;;2.82;100.00;100012.90;52191;1258;1079172;-78
2024/01/24 07:06:55;;;;;;;22.00;9.50;;;;;;;2.83;100.00;100007.23;51939;1257;1078174;-78
2024/01/24 07:09:41;;;;;;;23.90;8.00;;;;;;;2.82;100.00;99998.59;52103;1260;1078118;-79
2024/01/24 07:12:27;;;;;;;22.00;9.00;;;;;;;2.82;100.00;99981.86;52092;1260;1077499;-79
2024/01/24 07:15:17;;;;;;;22.20;8.30;;;;;;;2.81;100.00;99974.35;52164;1255;1076838;-79
2024/01/24 07:18:03;;;;;;;23.60;8.30;;;;;;;2.82;100.00;99981.48;52157;1256;1076505;-79
2024/01/24 07:20:48;;;;;;;27.30;8.60;;;;;;;2.84;100.00;99981.52;52201;1257;1078031;-79
2024/01/24 07:23:34;;;;;;;16.50;7.80;;;;;;;2.85;100.00;99981.55;52037;1260;1078591;-79
2024/01/24 07:26:20;;;;;;;18.70;7.40;;;;;;;2.87;100.00;99971.36;52251;1258;1076988;-80
2024/01/24 07:29:06;;;;;;;18.30;8.30;;;;;;;2.89;100.00;99964.08;52106;1258;1076809;-80
2024/01/24 07:31:51;;;;;;;18.40;7.40;;;;;;;2.90;100.00;99949.86;52175;1257;1077819;-81
2024/01/24 07:34:38;;;;;;;18.80;8.70;;;;;;;2.91;100.00;99949.42;52226;1258;1076497;-81
2024/01/24 07:37:24;;;;;;;17.30;7.90;;;;;;;2.92;100.00;99940.98;52289;1257;1076137;-81
2024/01/24 07:40:17;;;;;;;21.00;7.70;;;;;;;2.93;100.00;99932.77;52457;1260;1077411;-80
2024/01/24 07:43:02;;;;;;;19.70;9.00;;;;;;;2.94;100.00;99919.28;52089;1257;1076490;-81
2024/01/24 07:45:48;;;;;;;16.00;7.50;;;;;;;2.96;100.00;99917.71;52561;1257;1076859;-82
2024/01/24 07:48:34;;;;;;;18.00;6.70;;;;;;;2.97;100.00;99902.73;52551;1258;1078257;-81
2024/01/24 07:51:22;;;;;;;19.70;8.20;;;;;;;2.99;100.00;99889.34;52235;1257;1077473;-80
2024/01/24 07:54:08;;;;;;;13.60;6.60;;;;;;;3.00;100.00;99874.20;52416;1257;1076781;-80
2024/01/24 07:56:53;;;;;;;15.90;6.60;;;;;;;3.02;100.00;99858.29;52229;1263;1077025;-79
2024/01/24 07:59:39;;;;;;;12.30;6.00;;;;;;;3.04;100.00;99852.82;52100;1257;1076313;-79
2024/01/24 08:02:24;;;;;;;18.20;7.10;;;;;;;3.07;100.00;99834.16;52219;1260;1076010;-79
2024/01/24 08:05:14;;;;;;;17.90;7.10;;;;;;;3.09;100.00;99826.84;52318;1260;1076554;-82
2024/01/24 08:08:01;;;;;;;16.10;6.70;;;;;;;3.12;100.00;99830.13;51794;1264;1076636;-81
2024/01/24 08:10:47;;;;;;;10.80;5.10;;;;;;;3.14;100.00;99819.16;52311;1257;1076761;-81
2024/01/24 08:13:33;;;;;;;14.40;5.50;;;;;;;3.19;100.00;99814.09;51946;1257;1076774;-80
2024/01/24 08:16:21;;;;;;;13.70;5.80;;;;;;;3.23;100.00;99813.34;51994;1257;1076229;-79
2024/01/24 08:19:06;;;;;;;15.90;6.70;;;;;;;3.26;100.00;99814.42;52170;1260;1077024;-82
2024/01/24 08:21:52;;;;;;;18.50;6.70;;;;;;;3.29;100.00;99807.95;52337;1264;1076744;-84
2024/01/24 08:24:39;;;;;;;22.00;11.00;;;;;;;3.32;100.00;99794.48;52189;1258;1077186;-85
2024/01/24 08:27:24;;;;;;;18.30;10.10;;;;;;;3.35;100.00;99784.88;52270;1263;1077051;-80
2024/01/24 08:30:12;;;;;;;20.50;11.60;;;;;;;3.38;100.00;99776.05;52367;1258;1077538;-83
2024/01/24 08:32:58;;;;;;;17.70;7.60;;;;;;;3.41;100.00;99764.54;52484;1257;1077310;-81
2024/01/24 08:35:43;;;;;;;19.00;11.50;;;;;;;3.45;100.00;99757.86;52535;1264;1076242;-81
2024/01/24 08:38:30;;;;;;;22.50;12.00;;;;;;;3.46;100.00;99763.48;52535;1262;1078134;-88
2024/01/24 08:41:16;;;;;;;26.30;15.50;;;;;;;3.49;100.00;99760.23;52601;1257;1077063;-90
2024/01/24 08:44:02;;;;;;;31.90;19.00;;;;;;;3.51;100.00;99763.69;52521;1257;1076915;-86
2024/01/24 08:46:50;;;;;;;25.30;14.00;;;;;;;3.54;100.00;99757.96;52362;1260;1078979;-82
2024/01/24 08:49:36;;;;;;;21.40;12.10;;;;;;;3.56;100.00;99753.42;52471;1257;1077305;-80
2024/01/24 08:52:24;;;;;;;14.00;9.10;;;;;;;3.58;100.00;99752.36;52423;1257;1076819;-85
2024/01/24 08:55:13;;;;;;;17.40;10.30;;;;;;;3.60;100.00;99750.70;52367;1257;1079085;-82
2024/01/24 08:58:05;;;;;;;11.40;6.00;;;;;;;3.62;100.00;99741.73;52534;1256;1076904;-80
2024/01/24 09:00:50;;;;;;;17.10;11.70;;;;;;;3.64;100.00;99733.52;52527;1257;1076448;-83
2024/01/24 09:03:36;;;;;;;11.60;7.90;;;;;;;3.67;100.00;99726.60;52225;1257;1076090;-83
2024/01/24 09:06:24;;;;;;;15.50;10.20;;;;;;;3.70;100.00;99718.69;52099;1261;1077083;-81
2024/01/24 09:09:13;;;;;;;13.50;9.00;;;;;;;3.73;100.00;99713.10;52304;1258;1076742;-82
2024/01/24 09:12:01;;;;;;;18.70;11.70;;;;;;;3.77;100.00;99709.33;52281;1263;1076950;-86
2024/01/24 09:14:48;;;;;;;24.80;15.00;;;;;;;3.78;100.00;99714.46;52286;1265;1076981;-88
2024/01/24 09:17:35;;;;;;;13.20;8.90;;;;;;;3.81;100.00;99697.20;52507;1257;1076579;-80
2024/01/24 09:20:21;;;;;;;14.90;8.00;;;;;;;3.84;100.00;99682.73;52484;1258;1077631;-81
2024/01/24 09:23:07;;;;;;;14.20;8.40;;;;;;;3.88;100.00;99678.05;52551;1256;1076611;-80
2024/01/24 09:25:53;;;;;;;9.20;6.50;;;;;;;3.91;100.00;99669.10;52571;1258;1077494;-81
2024/01/24 09:28:38;;;;;;;15.20;9.10;;;;;;;3.95;100.00;99653.57;52605;1262;1076569;-80
2024/01/24 09:31:24;;;;;;;28.90;17.70;;;;;;;3.97;100.00;99655.70;52731;1257;1077440;-80
2024/01/24 09:34:11;;;;;;;16.10;9.00;;;;;;;4.00;100.00;99657.16;52635;1256;1076311;-84
2024/01/24 09:36:57;;;;;;;19.30;9.70;;;;;;;4.04;100.00;99649.34;52172;1257;1076569;-80
2024/01/24 09:39:43;;;;;;;28.30;16.60;;;;;;;4.06;100.00;99628.20;52439;1257;1076831;-86
2024/01/24 09:42:32;;;;;;;12.10;6.90;;;;;;;4.10;100.00;99600.97;52338;1257;1076498;-84
2024/01/24 09:45:22;;;;;;;11.60;6.30;;;;;;;4.13;100.00;99631.02;52083;1264;1078618;-85
2024/01/24 09:48:10;;;;;;;9.70;6.20;;;;;;;4.15;100.00;99656.24;52242;1257;1076793;-79
2024/01/24 09:50:56;;;;;;;18.30;14.60;;;;;;;4.20;100.00;99625.98;52170;1262;1077305;-78
2024/01/24 09:53:47;;;;;;;9.80;8.30;;;;;;;4.24;100.00;99624.89;51977;1258;1078151;-79
2024/01/24 09:56:37;;;;;;;7.30;4.70;;;;;;;4.27;100.00;99621.98;51997;1258;1076726;-80
2024/01/24 09:59:23;;;;;;;13.10;11.50;;;;;;;4.33;100.00;99613.62;52042;1258;1076470;-79
2024/01/24 10:02:09;;;;;;;7.00;4.80;;;;;;;4.37;100.00;99600.88;52188;1258;1076441;-79
2024/01/24 10:04:57;;;;;;;31.50;17.70;;;;;;;4.43;100.00;99613.16;52165;1258;1078622;-78
2024/01/24 10:07:44;;;;;;;21.80;11.60;;;;;;;4.48;100.00;99609.80;52022;1259;1076797;-87
2024/01/24 10:10:30;;;;;;;77.60;41.80;;;;;;;4.52;100.00;99595.48;52024;1257;1077030;-87
2024/01/24 10:13:16;;;;;;;18.70;10.90;;;;;;;4.56;100.00;99582.29;52335;1258;1076156;-84
2024/01/24 10:16:05;;;;;;;11.60;5.40;;;;;;;4.63;100.00;99574.62;52077;1258;1076474;-77
2024/01/24 10:18:54;;;;;;;10.60;6.40;;;;;;;4.71;100.00;99574.45;51846;1257;1076826;-77
2024/01/24 10:21:40;;;;;;;7.00;5.40;;;;;;;4.77;100.00;99579.95;51845;1261;1076859;-77
2024/01/24 10:24:27;;;;;;;6.00;4.90;;;;;;;4.84;100.00;99572.21;51768;1264;1076452;-77
2024/01/24 10:27:14;;;;;;;6.00;4.60;;;;;;;4.93;100.00;99574.88;51802;1258;1076866;-76
2024/01/24 10:29:59;;;;;;;17.30;11.20;;;;;;;5.02;100.00;99583.36;51790;1261;1076038;-77
2024/01/24 10:32:47;;;;;;;9.80;7.00;;;;;;;5.09;100.00;99583.72;51853;1261;1076672;-78
2024/01/24 10:35:33;;;;;;;12.00;7.80;;;;;;;5.17;100.00;99565.13;51844;1258;1086006;-87
2024/01/24 10:38:22;;;;;;;7.70;5.80;;;;;;;5.20;100.00;99561.37;52432;1267;1076981;-87
2024/01/24 10:41:12;;;;;;;10.00;5.70;;;;;;;5.26;100.00;99557.39;52425;1258;1078028;-87
2024/01/24 10:44:05;;;;;;;34.60;21.30;;;;;;;5.31;100.00;99543.14;52328;1257;1077639;-85
2024/01/24 10:46:52;;;;;;;23.90;13.50;;;;;;;5.36;100.00;99551.52;52973;1257;1076449;-86
2024/01/24 10:49:39;;;;;;;32.00;18.90;;;;;;;5.41;100.00;99554.18;52356;1258;1077409;-84
2024/01/24 10:52:26;;;;;;;32.50;20.50;;;;;;;5.46;100.00;99535.78;52238;1258;1076107;-87
2024/01/24 10:55:13;;;;;;;12.60;8.70;;;;;;;5.56;100.00;99522.99;52171;1258;1077465;-83
2024/01/24 10:57:58;;;;;;;17.00;11.00;;;;;;;5.64;100.00;99531.09;52295;1257;1077254;-83
2024/01/24 11:00:45;;;;;;;8.10;5.40;;;;;;;5.72;100.00;99532.10;52229;1264;1076892;-82
2024/01/24 11:03:32;;;;;;;7.10;5.40;;;;;;;5.81;100.00;99526.39;52367;1264;1075923;-81
2024/01/24 11:06:19;;;;;;;8.60;6.80;;;;;;;5.88;100.00;99516.23;52475;1258;1076199;-80
2024/01/24 11:09:23;;;;;;;8.90;6.90;;;;;;;5.95;100.00;99527.56;52476;1263;1076332;-82
2024/01/24 11:12:09;;;;;;;8.10;5.80;;;;;;;6.01;100.00;99537.11;52507;1258;1076839;-82
2024/01/24 11:15:08;;;;;;;9.20;6.80;;;;;;;6.07;100.00;99537.77;52516;1263;1075879;-86
2024/01/24 11:18:22;;;;;;;8.60;5.50;;;;;;;6.13;100.00;99534.60;52241;1276;1076834;-86
2024/01/24 11:21:08;;;;;;;9.90;6.80;;;;;;;6.18;100.00;99524.34;52325;1257;1076290;-84
2024/01/24 11:23:57;;;;;;;7.30;4.70;;;;;;;6.26;100.00;99527.00;52244;1264;1076684;-83
2024/01/24 11:26:47;;;;;;;5.70;5.10;;;;;;;6.36;100.00;99532.70;52125;1261;1076979;-85
2024/01/24 11:29:34;;;;;;;9.20;5.70;;;;;;;6.44;100.00;99523.48;52122;1258;1076635;-83
2024/01/24 11:33:05;;;;;;;9.60;6.10;;;;;;;6.52;100.00;99517.59;52278;1258;1076496;-79
2024/01/24 11:35:53;;;;;;;9.00;5.60;;;;;;;6.57;100.00;99504.31;52196;1258;1076997;-78
2024/01/24 11:38:40;;;;;;;7.90;5.60;;;;;;;6.62;100.00;99522.04;52190;1263;1076885;-79
2024/01/24 11:41:26;;;;;;;9.00;5.80;;;;;;;6.68;100.00;99521.79;52168;1259;1077459;-79
2024/01/24 11:44:12;;;;;;;7.70;5.00;;;;;;;6.74;100.00;99519.64;52217;1258;1076204;-78
2024/01/24 11:46:58;;;;;;;11.00;7.10;;;;;;;6.80;100.00;99514.23;52268;1261;1076868;-79
2024/01/24 11:49:50;;;;;;;14.70;9.20;;;;;;;6.90;100.00;99504.33;52267;1258;1076679;-79
2024/01/24 11:52:36;;;;;;;8.00;6.10;;;;;;;7.02;100.00;99505.14;52271;1262;1076960;-79
2024/01/24 11:55:23;;;;;;;8.70;5.90;;;;;;;7.11;100.00;99496.50;52774;1261;1076595;-79
2024/01/24 11:58:08;;;;;;;6.40;5.60;;;;;;;7.15;100.00;99502.95;52198;1260;1076525;-79
2024/01/24 12:01:08;;;;;;;7.90;5.50;;;;;;;7.19;100.00;99492.67;52074;1258;1076556;-77
2024/01/24 12:03:54;;;;;;;8.10;6.40;;;;;;;7.28;100.00;99492.27;52600;1258;1077170;-79
2024/01/24 12:06:41;;;;;;;8.80;5.40;;;;;;;7.34;100.00;99487.23;51805;1263;1076410;-78
2024/01/24 12:09:27;;;;;;;9.10;5.50;;;;;;;7.38;100.00;99494.83;51746;1274;1076880;-78
2024/01/24 12:12:14;;;;;;;7.90;5.20;;;;;;;7.44;100.00;99494.44;51855;1258;1077006;-78
2024/01/24 12:15:00;;;;;;;9.30;5.50;;;;;;;7.47;100.00;99485.13;51852;1260;1078310;-78
2024/01/24 12:17:45;;;;;;;8.10;4.70;;;;;;;7.50;100.00;99481.94;52090;1258;1076833;-79
2024/01/24 12:20:35;;;;;;;10.40;5.70;;;;;;;7.52;100.00;99484.64;52242;1261;1077599;-79
2024/01/24 12:23:21;;;;;;;8.00;4.70;;;;;;;7.54;100.00;99479.30;52091;1265;1077274;-79
2024/01/24 12:26:07;;;;;;;7.20;4.90;;;;;;;7.56;100.00;99490.81;52055;1258;1076305;-85
2024/01/24 12:28:53;;;;;;;12.50;4.80;;;;;;;7.58;100.00;99499.14;52541;1266;1076292;-79
2024/01/24 12:31:42;;;;;;;7.40;4.70;;;;;;;7.61;100.00;99501.80;52352;1258;1077329;-82
2024/01/24 12:34:29;;;;;;;7.30;4.10;;;;;;;7.64;100.00;99499.89;52283;1263;1077534;-80
2024/01/24 12:37:15;;;;;;;9.10;4.60;;;;;;;7.66;100.00;99493.89;52223;1258;1076149;-79